Time;durP1;ratioP1;P1;durP2;ratioP2;P2;SDS_P1;SDS_P2;PMS_P1;PMS_P2;Temp;Humidity;BMP_temperature;BMP_pressure;BME280_temperature;BME280_humidity;BME280_pressure;Samples;Min_cycle;Max_cycle;Signal;HPM_P1;HPM_P2
2022/03/23 00:05:57;;;;;;;18.30;9.40;;;7.00;47.70;;;;;;21083312;28;20658;-70
2022/03/23 00:16:01;;;;;;;19.30;9.67;;;6.80;47.80;;;;;;21091273;28;20639;-71
2022/03/23 00:26:03;;;;;;;15.43;9.80;;;6.70;48.00;;;;;;21091029;28;20207;-71
2022/03/23 00:36:06;;;;;;;14.27;8.93;;;6.60;48.00;;;;;;21089840;28;20594;-72
2022/03/23 00:46:08;;;;;;;13.47;8.80;;;6.50;48.20;;;;;;21089240;28;20214;-72
2022/03/23 00:56:11;;;;;;;21.83;9.87;;;6.50;48.90;;;;;;21088665;28;20557;-71
2022/03/23 01:06:13;;;;;;;15.87;9.43;;;6.50;48.80;;;;;;21086938;28;20244;-71
2022/03/23 01:16:16;;;;;;;15.70;9.00;;;6.30;48.70;;;;;;21086642;28;20643;-72
2022/03/23 01:26:18;;;;;;;16.43;9.30;;;6.20;48.90;;;;;;21001263;28;20277;-72
2022/03/23 01:36:20;;;;;;;15.50;8.73;;;6.00;49.00;;;;;;21001584;28;20231;-70
2022/03/23 01:46:22;;;;;;;15.63;9.13;;;5.90;50.00;;;;;;21008745;28;20612;-72
2022/03/23 01:56:24;;;;;;;16.40;9.27;;;5.90;50.40;;;;;;21000097;28;20231;-71
2022/03/23 02:06:26;;;;;;;18.87;9.30;;;5.60;50.30;;;;;;20998925;28;20958;-70
2022/03/23 02:16:28;;;;;;;17.07;9.23;;;5.60;50.40;;;;;;20997833;28;20239;-71
2022/03/23 02:26:31;;;;;;;18.10;10.00;;;5.60;50.90;;;;;;20997063;28;20682;-70
2022/03/23 02:36:33;;;;;;;17.30;9.63;;;5.40;50.70;;;;;;20996625;28;20231;-71
2022/03/23 02:46:35;;;;;;;15.03;9.43;;;5.30;50.90;;;;;;20996138;28;20583;-71
2022/03/23 03:07:03;;;;;;;16.97;9.37;;;5.30;51.50;;;;;;20995457;28;20233;-70
2022/03/23 03:17:05;;;;;;;17.00;9.40;;;5.20;51.20;;;;;;20993763;28;20242;-70
2022/03/23 03:27:09;;;;;;;18.50;9.43;;;5.20;51.30;;;;;;21068290;28;20205;-70
2022/03/23 03:37:10;;;;;;;20.37;9.30;;;5.00;51.60;;;;;;21078835;28;20238;-69
2022/03/23 03:47:12;;;;;;;16.20;8.80;;;5.00;51.80;;;;;;21093892;28;20267;-70
2022/03/23 03:57:14;;;;;;;17.43;8.80;;;4.90;51.80;;;;;;21093056;28;20302;-71
2022/03/23 04:07:16;;;;;;;15.70;9.03;;;5.00;51.80;;;;;;21092931;28;20601;-70
2022/03/23 04:17:17;;;;;;;18.73;9.63;;;4.80;52.20;;;;;;21091340;28;20302;-71
2022/03/23 04:27:19;;;;;;;19.80;9.70;;;4.60;52.50;;;;;;21122172;28;20211;-71
2022/03/23 04:37:20;;;;;;;18.10;9.43;;;4.60;52.60;;;;;;21125861;28;20320;-71
2022/03/23 04:47:22;;;;;;;13.03;8.83;;;4.50;52.80;;;;;;21105392;28;20650;-73
2022/03/23 04:57:26;;;;;;;18.13;8.97;;;4.40;53.10;;;;;;21122041;28;20238;-71
2022/03/23 05:07:27;;;;;;;15.00;9.03;;;4.30;53.20;;;;;;21114298;28;20206;-71
2022/03/23 05:17:29;;;;;;;16.07;9.07;;;4.10;53.40;;;;;;21088405;27;20295;-71
2022/03/23 05:27:35;;;;;;;19.73;8.93;;;4.20;53.70;;;;;;21080884;28;20202;-71
2022/03/23 05:37:37;;;;;;;17.03;10.67;;;4.10;53.90;;;;;;21085149;28;20274;-71
2022/03/23 05:47:43;;;;;;;16.67;9.60;;;4.20;54.20;;;;;;21086198;28;20207;-71
2022/03/23 05:57:44;;;;;;;21.20;9.30;;;4.20;54.30;;;;;;21086682;28;20291;-72
2022/03/23 06:07:46;;;;;;;22.63;9.87;;;4.30;54.40;;;;;;21084106;28;20206;-71
2022/03/23 06:17:48;;;;;;;19.97;10.57;;;4.40;54.40;;;;;;21068245;28;20283;-70
2022/03/23 06:27:50;;;;;;;25.77;11.23;;;4.60;54.40;;;;;;21090102;28;20561;-71
2022/03/23 06:37:51;;;;;;;27.97;11.27;;;4.80;54.70;;;;;;21092960;28;20230;-71
2022/03/23 06:47:53;;;;;;;26.10;11.07;;;5.00;54.80;;;;;;21079702;28;20285;-70
2022/03/23 06:57:55;;;;;;;18.87;11.20;;;5.50;54.70;;;;;;21060935;28;20279;-71
2022/03/23 07:18:29;;;;;;;25.97;12.03;;;5.90;54.20;;;;;;21024800;28;20241;-70
2022/03/23 07:28:31;;;;;;;30.40;12.27;;;6.20;53.90;;;;;;20994381;28;20219;-70
2022/03/23 07:38:34;;;;;;;33.33;11.13;;;6.30;53.80;;;;;;20994860;28;20687;-71
2022/03/23 07:48:36;;;;;;;21.67;11.60;;;6.90;53.30;;;;;;20993842;28;20203;-71
2022/03/23 07:58:37;;;;;;;21.43;10.87;;;6.90;53.10;;;;;;20994451;28;20246;-71
2022/03/23 08:08:40;;;;;;;23.97;10.23;;;7.30;53.30;;;;;;20994473;28;20857;-71
2022/03/23 08:18:41;;;;;;;21.27;11.23;;;7.70;51.60;;;;;;20975703;28;20319;-71
2022/03/23 08:28:45;;;;;;;22.53;10.57;;;8.10;50.70;;;;;;21002594;28;20270;-71
2022/03/23 08:38:47;;;;;;;18.13;10.77;;;8.40;50.20;;;;;;21007419;28;20298;-71
2022/03/23 08:48:53;;;;;;;22.63;11.80;;;8.80;49.40;;;;;;21006361;28;20212;-71
2022/03/23 08:58:54;;;;;;;22.50;10.83;;;9.30;48.60;;;;;;20972468;28;20242;-70
2022/03/23 09:08:56;;;;;;;19.47;11.00;;;9.60;47.30;;;;;;21005055;28;20632;-71
2022/03/23 09:18:59;;;;;;;18.37;10.87;;;9.90;46.50;;;;;;21004959;28;20311;-70
2022/03/23 09:29:03;;;;;;;21.33;11.57;;;10.10;45.00;;;;;;21055567;28;20206;-70
2022/03/23 09:39:05;;;;;;;19.67;11.70;;;10.30;45.40;;;;;;21087242;28;20296;-71
2022/03/23 09:49:07;;;;;;;19.57;12.10;;;10.90;44.40;;;;;;21085998;28;20203;-71
2022/03/23 09:59:11;;;;;;;19.40;12.63;;;11.10;44.00;;;;;;21083953;28;20242;-70
2022/03/23 10:09:55;;;;;;;20.53;12.47;;;11.30;44.30;;;;;;21084057;28;20212;-71
2022/03/23 10:19:56;;;;;;;19.27;12.33;;;11.70;42.60;;;;;;21035880;28;20263;-71
2022/03/23 10:29:58;;;;;;;20.03;11.23;;;12.10;41.50;;;;;;21081709;28;20210;-70
2022/03/23 10:40:12;;;;;;;15.83;10.97;;;12.20;40.90;;;;;;21082023;28;20574;-71
2022/03/23 10:50:23;;;;;;;17.63;11.20;;;12.60;39.60;;;;;;21081469;28;20309;-72
2022/03/23 11:00:32;;;;;;;17.97;11.17;;;12.90;38.30;;;;;;21083512;28;20230;-72
2022/03/23 11:20:59;;;;;;;14.03;10.63;;;13.50;37.00;;;;;;21090103;28;20290;-71
2022/03/23 11:31:08;;;;;;;13.30;10.07;;;13.60;37.10;;;;;;21010537;28;20212;-70
2022/03/23 11:41:10;;;;;;;16.47;9.93;;;14.00;35.80;;;;;;21005844;28;20289;-71
2022/03/23 11:51:15;;;;;;;15.93;10.00;;;14.20;36.30;;;;;;21011278;28;20353;-72
2022/03/23 12:01:17;;;;;;;14.30;9.80;;;14.50;35.70;;;;;;21007999;28;20234;-71
2022/03/23 12:11:41;;;;;;;16.20;9.60;;;14.90;34.60;;;;;;21015950;28;20206;-71
2022/03/23 12:22:05;;;;;;;16.03;9.70;;;15.20;34.60;;;;;;21010417;28;20305;-71
2022/03/23 12:32:10;;;;;;;16.43;9.23;;;15.60;33.80;;;;;;20996458;28;20211;-71
2022/03/23 12:42:12;;;;;;;16.67;9.60;;;15.90;33.40;;;;;;21008184;28;20281;-70
2022/03/23 13:02:55;;;;;;;15.20;9.80;;;16.90;30.30;;;;;;21035996;28;20232;-73
2022/03/23 13:13:07;;;;;;;17.47;12.67;;;17.10;30.50;;;;;;21041228;28;20204;-73
2022/03/23 13:23:14;;;;;;;22.67;10.40;;;17.30;30.50;;;;;;21003417;28;20244;-72
2022/03/23 13:33:17;;;;;;;11.53;9.50;;;17.70;29.00;;;;;;21004189;28;20209;-72
2022/03/23 13:43:19;;;;;;;14.63;8.20;;;17.80;28.20;;;;;;20992927;28;20233;-73
2022/03/23 13:53:21;;;;;;;19.77;11.97;;;17.90;28.20;;;;;;21013028;28;20259;-71
2022/03/23 14:03:35;;;;;;;17.07;8.67;;;18.20;27.80;;;;;;21004403;28;20229;-71
2022/03/23 14:13:40;;;;;;;10.17;7.83;;;18.60;27.90;;;;;;21008909;28;20236;-71
2022/03/23 14:23:42;;;;;;;10.77;8.70;;;19.00;27.30;;;;;;21000377;28;20291;-71
2022/03/23 14:34:05;;;;;;;9.93;7.57;;;20.60;27.00;;;;;;20995585;28;20269;-71
2022/03/23 14:44:09;;;;;;;7.65;5.80;;;24.30;25.60;;;;;;20976361;28;20227;-71
2022/03/23 14:54:13;;;;;;;9.13;6.22;;;26.20;23.60;;;;;;20996735;28;20265;-72
2022/03/23 15:04:15;;;;;;;11.35;5.70;;;27.90;21.10;;;;;;20995408;28;20231;-72
2022/03/23 15:14:17;;;;;;;8.77;5.53;;;27.70;21.30;;;;;;20994105;28;20553;-71
2022/03/23 15:24:19;;;;;;;12.32;4.70;;;28.90;18.80;;;;;;20992706;28;20238;-72
2022/03/23 15:34:21;;;;;;;6.53;5.68;;;28.80;19.20;;;;;;21030844;28;20218;-73
2022/03/23 15:44:23;;;;;;;6.43;5.43;;;26.10;19.50;;;;;;21011509;28;20321;-72
2022/03/23 15:54:25;;;;;;;10.00;5.73;;;25.20;19.80;;;;;;21087042;28;20199;-72
2022/03/23 16:04:30;;;;;;;8.27;6.40;;;22.80;20.10;;;;;;21067666;28;20243;-70
2022/03/23 16:14:31;;;;;;;8.47;5.80;;;21.70;20.40;;;;;;21009098;28;20210;-71
2022/03/23 16:24:34;;;;;;;8.93;5.97;;;21.30;21.10;;;;;;21025289;28;20231;-73
2022/03/23 16:34:36;;;;;;;7.53;5.40;;;20.70;21.70;;;;;;21091452;28;20288;-72
2022/03/23 16:44:38;;;;;;;8.50;5.80;;;20.10;22.20;;;;;;21025458;28;20242;-71
2022/03/23 16:54:40;;;;;;;11.20;6.40;;;19.60;22.70;;;;;;21005198;28;20212;-71
2022/03/23 17:15:08;;;;;;;10.80;5.80;;;18.90;23.80;;;;;;21003979;28;20232;-72
2022/03/23 17:25:13;;;;;;;7.77;5.57;;;18.50;24.70;;;;;;21002640;28;20259;-71
2022/03/23 17:35:15;;;;;;;12.23;6.27;;;18.10;25.70;;;;;;21000758;28;20202;-71
2022/03/23 17:45:17;;;;;;;13.23;7.37;;;17.30;26.60;;;;;;21084631;28;20244;-70
2022/03/23 17:55:19;;;;;;;14.73;7.53;;;16.70;27.40;;;;;;21042300;28;20218;-68
2022/03/23 18:05:21;;;;;;;23.10;14.73;;;16.80;27.80;;;;;;21082841;28;20233;-69
2022/03/23 18:15:23;;;;;;;17.17;9.20;;;16.40;29.20;;;;;;21015481;28;20232;-71
2022/03/23 18:25:24;;;;;;;19.83;10.37;;;15.80;29.80;;;;;;20997365;28;20227;-72
2022/03/23 18:35:27;;;;;;;22.03;9.77;;;15.60;30.70;;;;;;20981035;28;20656;-71
2022/03/23 18:45:29;;;;;;;25.50;10.70;;;15.20;31.40;;;;;;21070569;28;20245;-70
2022/03/23 18:55:31;;;;;;;22.73;10.50;;;15.00;32.40;;;;;;21079614;28;20207;-69
2022/03/23 19:05:32;;;;;;;25.97;14.10;;;14.60;33.20;;;;;;21079234;28;20231;-72
2022/03/23 19:15:34;;;;;;;16.93;11.40;;;14.20;34.50;;;;;;21065729;28;20311;-72
2022/03/23 19:25:37;;;;;;;24.27;14.17;;;13.70;35.70;;;;;;21042676;28;20227;-70
2022/03/23 19:35:42;;;;;;;19.70;11.80;;;13.60;36.30;;;;;;21030564;28;20233;-73
2022/03/23 19:45:43;;;;;;;19.30;12.07;;;13.10;36.80;;;;;;20993753;28;20571;-71
2022/03/23 19:55:47;;;;;;;28.73;13.03;;;12.80;37.50;;;;;;21067283;28;20233;-68
2022/03/23 20:05:49;;;;;;;26.40;12.50;;;12.40;37.80;;;;;;21076830;28;20244;-69
2022/03/23 20:15:51;;;;;;;22.17;13.93;;;12.40;37.90;;;;;;21076352;28;20280;-70
2022/03/23 20:25:52;;;;;;;24.80;12.20;;;12.30;38.70;;;;;;21070434;28;20768;-70
2022/03/23 20:35:54;;;;;;;22.13;12.43;;;11.90;39.80;;;;;;21075987;28;20219;-70
2022/03/23 20:45:57;;;;;;;21.07;12.00;;;11.80;40.30;;;;;;21007599;28;20279;-71
2022/03/23 20:55:59;;;;;;;21.33;12.37;;;11.50;39.70;;;;;;20993137;28;20211;-69
2022/03/23 21:06:04;;;;;;;21.93;12.80;;;11.20;40.20;;;;;;21006120;28;20231;-69
2022/03/23 21:16:05;;;;;;;19.80;12.27;;;10.90;40.90;;;;;;20985374;28;20231;-70
2022/03/23 21:26:08;;;;;;;20.93;11.80;;;10.70;41.20;;;;;;21003477;28;20242;-69
2022/03/23 21:36:09;;;;;;;25.30;12.23;;;10.60;41.20;;;;;;21002508;28;20215;-71
2022/03/23 21:46:11;;;;;;;17.97;11.73;;;10.30;41.40;;;;;;21001819;28;20633;-71
2022/03/23 21:56:13;;;;;;;21.57;11.23;;;10.20;41.70;;;;;;20983261;28;20207;-72
2022/03/23 22:06:15;;;;;;;22.80;11.00;;;10.10;42.00;;;;;;20999923;28;20231;-71
2022/03/23 22:16:19;;;;;;;17.33;10.50;;;9.90;43.70;;;;;;20998731;28;20300;-71
2022/03/23 22:26:21;;;;;;;21.10;10.80;;;9.80;44.30;;;;;;20998210;28;20712;-68
2022/03/23 22:36:23;;;;;;;20.10;10.50;;;9.60;43.70;;;;;;20979156;28;20269;-69
2022/03/23 22:46:26;;;;;;;16.50;10.37;;;9.50;44.30;;;;;;20993378;28;20641;-70
2022/03/23 22:56:31;;;;;;;16.73;10.63;;;9.40;44.90;;;;;;20995963;28;20248;-69
2022/03/23 23:06:33;;;;;;;18.90;9.83;;;9.20;45.00;;;;;;20995945;28;20287;-72
2022/03/23 23:16:35;;;;;;;16.13;9.83;;;9.10;45.50;;;;;;21002940;28;20233;-68
2022/03/23 23:26:37;;;;;;;18.20;10.20;;;9.00;45.20;;;;;;21073768;28;20237;-68
2022/03/23 23:36:44;;;;;;;17.03;9.27;;;8.90;45.70;;;;;;21077970;28;20218;-67
2022/03/23 23:46:46;;;;;;;24.10;8.97;;;8.70;45.80;;;;;;21077050;28;20266;-69
2022/03/23 23:56:48;;;;;;;18.30;9.67;;;8.50;46.30;;;;;;21084841;28;20207;-68
